createdAt,value
2022-12-08T00:00:09.576Z,38.57
2022-12-08T00:03:15.518Z,36.15
2022-12-08T00:06:42.927Z,33.83
2022-12-08T00:09:45.675Z,35.72
2022-12-08T00:12:48.441Z,37.67
2022-12-08T00:15:51.139Z,39.40
2022-12-08T00:18:53.915Z,41.13
2022-12-08T00:21:57.338Z,40.33
2022-12-08T00:25:00.295Z,39.80
2022-12-08T00:28:03.402Z,38.80
2022-12-08T00:31:10.978Z,36.70
2022-12-08T00:34:15.046Z,40.60
2022-12-08T00:37:17.769Z,35.03
2022-12-08T00:40:20.486Z,37.80
2022-12-08T00:43:23.228Z,37.30
2022-12-08T00:46:26.109Z,41.43
2022-12-08T00:49:29.062Z,36.03
2022-12-08T00:52:31.974Z,37.42
2022-12-08T00:55:34.697Z,39.15
2022-12-08T00:58:37.588Z,40.40
2022-12-08T01:01:40.395Z,43.83
2022-12-08T01:04:43.411Z,41.15
2022-12-08T01:07:46.308Z,42.72
2022-12-08T01:10:49.130Z,43.90
2022-12-08T01:13:51.987Z,44.83
2022-12-08T01:16:54.981Z,40.70
2022-12-08T01:19:57.741Z,44.88
2022-12-08T01:23:00.605Z,41.00
2022-12-08T01:26:05.188Z,39.60
2022-12-08T01:29:08.382Z,43.23
2022-12-08T01:32:11.274Z,47.10
2022-12-08T01:35:14.359Z,44.25
2022-12-08T01:38:17.449Z,49.50
2022-12-08T01:41:22.830Z,47.00
2022-12-08T01:44:25.583Z,46.43
2022-12-08T01:47:34.993Z,42.03
2022-12-08T01:50:40.066Z,41.10
2022-12-08T01:53:43.543Z,42.70
2022-12-08T01:57:11.990Z,41.85
2022-12-08T02:00:17.652Z,45.07
2022-12-08T02:03:59.138Z,45.27
2022-12-08T02:07:07.821Z,45.55
2022-12-08T02:10:14.534Z,45.85
2022-12-08T02:13:19.318Z,48.88
2022-12-08T02:16:22.188Z,50.77
2022-12-08T02:20:03.814Z,47.70
2022-12-08T02:23:11.277Z,48.33
2022-12-08T02:26:35.427Z,47.28
2022-12-08T02:30:07.803Z,46.85
2022-12-08T02:33:31.398Z,50.10
2022-12-08T02:36:47.423Z,46.37
2022-12-08T02:40:22.996Z,45.80
2022-12-08T02:43:47.775Z,44.28
2022-12-08T02:47:06.149Z,44.15
2022-12-08T02:50:09.993Z,49.47
2022-12-08T02:56:17.361Z,45.13
2022-12-08T02:59:33.895Z,46.58
2022-12-08T03:03:02.564Z,51.45
2022-12-08T03:06:24.097Z,47.67
2022-12-08T03:09:46.996Z,46.63
2022-12-08T03:12:57.748Z,49.45
2022-12-08T03:16:04.826Z,48.03
2022-12-08T03:19:21.332Z,49.95
2022-12-08T03:22:27.790Z,49.63
2022-12-08T03:25:33.764Z,47.63
2022-12-08T03:28:36.642Z,47.33
2022-12-08T03:31:44.618Z,50.50
2022-12-08T03:34:51.029Z,47.78
2022-12-08T03:38:09.115Z,47.70
2022-12-08T03:41:21.322Z,48.17
2022-12-08T03:44:24.190Z,52.92
2022-12-08T03:47:26.996Z,47.72
2022-12-08T03:50:29.849Z,51.45
2022-12-08T03:53:32.578Z,47.40
2022-12-08T03:56:38.281Z,50.00
2022-12-08T03:59:41.366Z,55.75
2022-12-08T04:02:44.252Z,50.80
2022-12-08T04:05:47.018Z,50.63
2022-12-08T04:08:51.122Z,50.27
2022-12-08T04:11:53.874Z,54.57
2022-12-08T04:14:56.558Z,55.35
2022-12-08T04:17:59.377Z,54.60
2022-12-08T04:21:02.843Z,55.90
2022-12-08T04:24:05.841Z,56.57
2022-12-08T04:27:08.682Z,55.93
2022-12-08T04:30:12.116Z,49.35
2022-12-08T04:33:14.865Z,50.22
2022-12-08T04:36:17.660Z,49.28
2022-12-08T04:39:21.386Z,48.93
2022-12-08T04:42:24.121Z,51.20
2022-12-08T04:45:26.961Z,47.75
2022-12-08T04:48:29.959Z,48.97
2022-12-08T04:51:32.745Z,43.22
2022-12-08T04:54:35.571Z,42.83
2022-12-08T04:57:38.392Z,41.27
2022-12-08T05:00:41.609Z,41.00
2022-12-08T05:03:44.401Z,49.50
2022-12-08T05:06:47.185Z,38.42
2022-12-08T05:09:49.969Z,41.63
2022-12-08T05:12:52.883Z,42.83
2022-12-08T05:16:06.159Z,44.33
2022-12-08T05:19:09.539Z,49.00
2022-12-08T05:22:12.498Z,47.95
2022-12-08T05:25:15.544Z,46.73
2022-12-08T05:28:40.735Z,52.40
2022-12-08T05:31:41.242Z,43.95
2022-12-08T05:34:44.156Z,44.85
2022-12-08T05:37:47.010Z,41.88
2022-12-08T05:40:49.839Z,45.53
2022-12-08T05:43:52.650Z,42.57
2022-12-08T05:46:55.504Z,44.75
2022-12-08T05:49:58.303Z,45.40
2022-12-08T05:53:01.076Z,45.60
2022-12-08T05:56:04.040Z,48.00
2022-12-08T05:59:07.589Z,44.87
2022-12-08T06:02:10.397Z,47.88
2022-12-08T06:05:13.438Z,47.65
2022-12-08T06:08:16.452Z,52.35
2022-12-08T06:11:21.566Z,51.07
2022-12-08T06:14:24.435Z,50.70
2022-12-08T06:17:27.274Z,50.75
2022-12-08T06:20:30.085Z,51.63
2022-12-08T06:23:32.863Z,47.00
2022-12-08T06:26:36.253Z,52.53
2022-12-08T06:29:39.373Z,41.17
2022-12-08T06:32:42.441Z,46.95
2022-12-08T06:35:45.291Z,46.20
2022-12-08T06:38:48.627Z,51.08
2022-12-08T06:42:09.810Z,50.83
2022-12-08T06:45:17.112Z,68.90
2022-12-08T06:48:20.032Z,59.72
2022-12-08T06:51:25.716Z,57.20
2022-12-08T06:54:28.771Z,51.45
2022-12-08T06:57:31.820Z,45.40
2022-12-08T07:00:34.658Z,48.20
2022-12-08T07:03:38.702Z,50.45
2022-12-08T07:06:41.802Z,50.78
2022-12-08T07:09:44.963Z,48.92
2022-12-08T07:12:48.081Z,52.73
2022-12-08T07:15:52.607Z,58.43
2022-12-08T07:18:57.061Z,49.10
2022-12-08T07:22:00.743Z,48.55
2022-12-08T07:25:03.776Z,46.17
2022-12-08T07:28:13.090Z,47.87
2022-12-08T07:31:26.973Z,43.00
2022-12-08T07:34:33.751Z,39.30
2022-12-08T07:37:38.264Z,44.08
2022-12-08T07:40:41.288Z,46.63
2022-12-08T07:43:48.207Z,43.17
2022-12-08T07:46:51.372Z,39.53
2022-12-08T07:49:54.474Z,39.47
2022-12-08T07:52:58.533Z,43.03
2022-12-08T07:56:01.355Z,43.17
2022-12-08T07:59:04.563Z,42.03
2022-12-08T08:02:24.290Z,40.33
2022-12-08T08:05:28.537Z,36.83
2022-12-08T08:08:34.780Z,39.72
2022-12-08T08:11:37.995Z,41.28
2022-12-08T08:14:40.879Z,39.33
2022-12-08T08:17:43.644Z,38.60
2022-12-08T08:20:46.514Z,39.00
2022-12-08T08:23:49.570Z,38.10
2022-12-08T08:26:53.726Z,40.38
2022-12-08T08:29:56.684Z,37.83
2022-12-08T08:33:01.225Z,40.40
2022-12-08T08:36:08.412Z,41.97
2022-12-08T08:39:11.269Z,40.90
2022-12-08T08:42:15.671Z,43.08
2022-12-08T08:45:18.547Z,41.73
2022-12-08T08:48:21.603Z,44.67
2022-12-08T08:51:24.596Z,40.92
2022-12-08T08:54:29.629Z,40.80
2022-12-08T08:57:32.609Z,44.53
2022-12-08T09:00:35.404Z,43.03
2022-12-08T09:03:38.808Z,43.90
2022-12-08T09:06:45.586Z,39.33
2022-12-08T09:09:50.398Z,44.03
2022-12-08T09:12:53.415Z,42.83
2022-12-08T09:15:56.594Z,41.00
2022-12-08T09:19:00.649Z,42.37
2022-12-08T09:23:04.760Z,43.83
2022-12-08T09:26:09.350Z,35.83
2022-12-08T09:29:13.971Z,39.70
2022-12-08T09:32:17.065Z,34.80
2022-12-08T09:35:20.135Z,37.33
2022-12-08T09:38:23.219Z,38.30
2022-12-08T09:41:38.779Z,31.45
2022-12-08T09:45:10.015Z,36.38
2022-12-08T09:48:15.518Z,37.10
2022-12-08T09:51:18.891Z,36.23
2022-12-08T09:54:35.208Z,32.40
2022-12-08T09:57:38.388Z,32.63
2022-12-08T10:00:41.173Z,31.02
2022-12-08T10:03:44.085Z,32.40
2022-12-08T10:06:53.228Z,32.50
2022-12-08T10:10:04.749Z,34.83
2022-12-08T10:13:22.115Z,33.05
2022-12-08T10:16:35.099Z,32.08
2022-12-08T10:19:40.869Z,27.75
2022-12-08T10:22:49.965Z,24.43
2022-12-08T10:26:01.087Z,30.45
2022-12-08T10:29:04.083Z,26.48
2022-12-08T10:32:17.235Z,26.52
2022-12-08T10:35:23.043Z,29.07
2022-12-08T10:38:36.373Z,27.53
2022-12-08T10:41:40.438Z,28.02
2022-12-08T10:45:24.909Z,29.95
2022-12-08T10:48:33.383Z,28.95
2022-12-08T10:51:42.097Z,29.77
2022-12-08T10:54:46.835Z,29.17
2022-12-08T10:57:50.780Z,28.42
2022-12-08T11:01:03.216Z,24.77
2022-12-08T11:04:18.853Z,25.35
2022-12-08T11:07:23.682Z,24.60
2022-12-08T11:10:37.753Z,28.10
2022-12-08T11:13:42.356Z,25.25
2022-12-08T11:16:45.725Z,24.38
2022-12-08T11:20:12.608Z,25.80
2022-12-08T11:27:59.882Z,25.80
2022-12-08T11:31:21.075Z,26.08
2022-12-08T11:34:38.987Z,24.40
2022-12-08T11:37:43.827Z,22.83
2022-12-08T11:40:53.462Z,24.13
2022-12-08T11:44:24.631Z,29.47
2022-12-08T11:47:41.332Z,23.35
2022-12-08T11:50:52.991Z,21.35
2022-12-08T11:54:28.870Z,26.42
2022-12-08T11:57:32.341Z,22.90
2022-12-08T12:00:35.680Z,22.43
2022-12-08T12:04:04.688Z,25.85
2022-12-08T12:07:42.026Z,26.67
2022-12-08T12:11:09.582Z,25.25
2022-12-08T12:14:12.384Z,30.47
2022-12-08T12:17:40.692Z,25.87
2022-12-08T12:21:06.785Z,31.58
2022-12-08T12:24:30.496Z,30.58
2022-12-08T12:27:41.559Z,28.25
2022-12-08T12:31:15.924Z,29.20
2022-12-08T12:34:24.305Z,28.17
2022-12-08T12:37:39.137Z,27.17
2022-12-08T12:40:42.322Z,27.30
2022-12-08T12:44:10.564Z,26.77
2022-12-08T12:47:15.121Z,25.37
2022-12-08T12:50:33.565Z,30.10
2022-12-08T12:53:36.420Z,27.38
2022-12-08T12:57:08.635Z,25.27
2022-12-08T13:00:20.458Z,24.60
2022-12-08T13:03:25.023Z,25.30
2022-12-08T13:06:44.988Z,27.67
2022-12-08T13:10:33.854Z,23.73
2022-12-08T13:13:57.311Z,28.80
2022-12-08T13:17:02.297Z,31.80
2022-12-08T13:20:17.708Z,36.13
2022-12-08T13:23:57.807Z,38.73
2022-12-08T13:27:14.833Z,28.85
2022-12-08T13:30:45.409Z,24.77
2022-12-08T13:33:48.562Z,25.50
2022-12-08T13:37:00.424Z,25.30
2022-12-08T13:40:16.395Z,26.23
2022-12-08T13:43:52.444Z,28.27
2022-12-08T13:47:32.916Z,27.33
2022-12-08T13:51:55.004Z,26.13
2022-12-08T13:57:35.800Z,24.63
2022-12-08T14:00:39.416Z,26.85
2022-12-08T14:04:42.148Z,30.60
2022-12-08T14:07:22.959Z,28.50
2022-12-08T14:10:30.583Z,28.50
2022-12-08T14:13:34.262Z,29.97
2022-12-08T14:16:49.822Z,30.13
2022-12-08T14:20:02.141Z,30.73
2022-12-08T14:23:07.863Z,33.28
2022-12-08T14:26:12.845Z,33.03
2022-12-08T14:29:40.067Z,34.23
2022-12-08T14:32:58.802Z,35.30
2022-12-08T14:36:01.599Z,29.60
2022-12-08T14:39:04.456Z,33.80
2022-12-08T14:42:07.912Z,32.33
2022-12-08T14:45:13.252Z,34.70
2022-12-08T14:48:29.660Z,34.65
2022-12-08T14:51:33.729Z,29.63
2022-12-08T14:54:36.660Z,37.20
2022-12-08T14:57:39.851Z,31.70
2022-12-08T15:00:50.182Z,36.17
2022-12-08T15:03:55.655Z,34.95
2022-12-08T15:07:04.890Z,32.25
2022-12-08T15:10:10.219Z,36.10
2022-12-08T15:13:13.075Z,32.33
2022-12-08T15:16:27.237Z,36.20
2022-12-08T15:19:33.429Z,33.63
2022-12-08T15:22:36.286Z,40.33
2022-12-08T15:25:39.076Z,39.22
2022-12-08T15:28:41.931Z,37.87
2022-12-08T15:31:44.964Z,37.90
2022-12-08T15:34:48.370Z,37.67
2022-12-08T15:37:51.250Z,45.70
2022-12-08T15:40:55.290Z,39.78
2022-12-08T15:43:58.209Z,40.07
2022-12-08T15:47:01.229Z,39.10
2022-12-08T15:50:05.017Z,40.80
2022-12-08T15:53:10.754Z,44.55
2022-12-08T15:56:30.104Z,50.50
2022-12-08T15:59:33.227Z,54.77
2022-12-08T16:03:04.938Z,61.87
2022-12-08T16:06:50.808Z,67.18
2022-12-08T16:09:41.595Z,62.08
2022-12-08T16:16:29.310Z,54.60
2022-12-08T16:19:32.052Z,50.70
2022-12-08T16:29:22.713Z,38.50
2022-12-08T16:32:27.152Z,45.00
2022-12-08T16:35:30.825Z,43.00
2022-12-08T16:38:36.029Z,184.35
2022-12-08T16:42:01.192Z,113.80
2022-12-08T16:45:10.145Z,92.80
2022-12-08T16:48:14.811Z,80.80
2022-12-08T16:51:26.481Z,69.67
2022-12-08T16:54:30.288Z,66.35
2022-12-08T16:57:33.018Z,66.40
2022-12-08T17:00:38.733Z,59.42
2022-12-08T17:03:51.736Z,58.47
2022-12-08T17:07:05.806Z,57.07
2022-12-08T17:10:10.903Z,58.10
2022-12-08T17:13:16.997Z,58.15
2022-12-08T17:16:20.420Z,61.97
2022-12-08T17:19:23.449Z,60.40
2022-12-08T17:22:26.481Z,58.00
2022-12-08T17:25:29.363Z,69.70
2022-12-08T17:28:58.853Z,72.28
2022-12-08T17:31:55.472Z,91.00
2022-12-08T17:34:58.474Z,94.90
2022-12-08T17:38:01.251Z,91.20
2022-12-08T17:41:07.294Z,232.82
2022-12-08T17:44:12.319Z,182.55
2022-12-08T17:47:15.078Z,168.18
2022-12-08T17:50:18.254Z,187.53
2022-12-08T17:53:22.158Z,184.30
2022-12-08T17:56:25.018Z,184.18
2022-12-08T17:59:29.052Z,213.25
2022-12-08T18:02:33.675Z,181.95
2022-12-08T18:05:37.088Z,157.13
2022-12-08T18:08:40.770Z,161.70
2022-12-08T18:11:44.643Z,172.38
2022-12-08T18:14:48.392Z,196.38
2022-12-08T18:17:51.332Z,159.32
2022-12-08T18:20:54.567Z,190.40
2022-12-08T18:23:57.667Z,125.07
2022-12-08T18:27:00.587Z,138.93
2022-12-08T18:30:04.183Z,123.38
2022-12-08T18:33:08.451Z,107.72
2022-12-08T18:36:15.242Z,112.07
2022-12-08T18:39:29.465Z,131.33
2022-12-08T18:42:32.823Z,193.93
2022-12-08T18:45:38.879Z,153.20
2022-12-08T18:48:47.394Z,137.80
2022-12-08T18:51:50.339Z,104.87
2022-12-08T18:55:09.060Z,86.13
2022-12-08T18:58:15.179Z,79.40
2022-12-08T19:01:19.842Z,78.80
2022-12-08T19:04:31.886Z,75.75
2022-12-08T19:07:36.763Z,77.03
2022-12-08T19:10:39.714Z,80.70
2022-12-08T19:13:42.747Z,56.20
2022-12-08T19:16:46.861Z,78.28
2022-12-08T19:19:50.126Z,66.53
2022-12-08T19:22:53.850Z,58.33
2022-12-08T19:25:56.660Z,51.87
2022-12-08T19:28:59.902Z,58.63
2022-12-08T19:32:05.240Z,56.83
2022-12-08T19:35:08.742Z,56.63
2022-12-08T19:38:11.888Z,87.60
2022-12-08T19:41:33.919Z,70.70
2022-12-08T19:44:55.276Z,63.03
2022-12-08T19:47:58.439Z,67.03
2022-12-08T19:51:01.728Z,70.45
2022-12-08T19:54:05.170Z,64.00
2022-12-08T19:57:08.602Z,71.50
2022-12-08T20:00:13.130Z,61.50
2022-12-08T20:03:17.911Z,69.18
2022-12-08T20:06:23.374Z,88.88
2022-12-08T20:09:26.494Z,95.37
2022-12-08T20:12:29.532Z,88.00
2022-12-08T20:15:32.650Z,85.95
2022-12-08T20:18:37.168Z,78.78
2022-12-08T20:21:41.265Z,79.43
2022-12-08T20:24:44.107Z,77.17
2022-12-08T20:27:47.174Z,80.50
2022-12-08T20:30:50.432Z,74.90
2022-12-08T20:33:53.721Z,73.30
2022-12-08T20:36:56.837Z,75.03
2022-12-08T20:39:59.955Z,71.93
2022-12-08T20:43:03.043Z,70.03
2022-12-08T20:46:09.468Z,71.30
2022-12-08T20:49:13.416Z,78.45
2022-12-08T20:52:16.865Z,77.25
2022-12-08T20:55:20.049Z,74.90
2022-12-08T20:58:23.801Z,69.97
2022-12-08T21:01:27.167Z,75.03
2022-12-08T21:04:30.277Z,72.78
2022-12-08T21:07:34.274Z,71.28
2022-12-08T21:10:42.294Z,69.80
2022-12-08T21:13:47.045Z,69.30
2022-12-08T21:16:51.014Z,78.40
2022-12-08T21:19:54.033Z,76.40
2022-12-08T21:22:56.765Z,74.88
2022-12-08T21:25:59.804Z,69.20
2022-12-08T21:29:02.602Z,71.93
2022-12-08T21:32:05.635Z,72.70
2022-12-08T21:35:09.259Z,74.28
2022-12-08T21:38:12.404Z,79.82
2022-12-08T21:41:37.617Z,68.70
2022-12-08T21:44:40.773Z,68.70
2022-12-08T21:47:44.917Z,78.00
2022-12-08T21:50:48.125Z,75.03
2022-12-08T21:53:51.369Z,79.03
2022-12-08T21:56:54.392Z,70.67
2022-12-08T21:59:57.675Z,75.23
2022-12-08T22:03:00.563Z,70.72
2022-12-08T22:06:11.929Z,73.55
2022-12-08T22:09:15.475Z,77.43
2022-12-08T22:12:18.625Z,65.07
2022-12-08T22:15:21.464Z,70.37
2022-12-08T22:18:24.672Z,71.05
2022-12-08T22:21:27.894Z,77.30
2022-12-08T22:24:31.344Z,74.60
2022-12-08T22:27:34.660Z,76.40
2022-12-08T22:30:39.475Z,65.53
2022-12-08T22:33:42.997Z,70.53
2022-12-08T22:36:46.023Z,71.75
2022-12-08T22:39:48.853Z,68.30
2022-12-08T22:42:51.848Z,78.10
2022-12-08T22:45:54.761Z,81.83
2022-12-08T22:48:57.632Z,79.15
2022-12-08T22:52:00.616Z,80.47
2022-12-08T22:55:03.521Z,77.30
2022-12-08T22:58:06.245Z,80.03
2022-12-08T23:01:09.432Z,83.30
2022-12-08T23:04:17.425Z,91.65
2022-12-08T23:07:20.535Z,63.22
2022-12-08T23:10:23.399Z,59.97
2022-12-08T23:13:26.134Z,69.47
2022-12-08T23:16:29.193Z,58.77
2022-12-08T23:19:32.021Z,52.90
2022-12-08T23:22:34.756Z,60.17
2022-12-08T23:25:41.720Z,56.20
2022-12-08T23:28:44.857Z,59.00
2022-12-08T23:31:47.738Z,59.70
2022-12-08T23:34:50.760Z,56.72
2022-12-08T23:37:53.762Z,56.92
2022-12-08T23:41:02.219Z,59.47
2022-12-08T23:44:05.099Z,64.53
2022-12-08T23:47:08.035Z,60.67
2022-12-08T23:50:12.196Z,62.08
2022-12-08T23:53:15.221Z,64.32
2022-12-08T23:56:18.891Z,71.30
2022-12-08T23:59:21.745Z,66.30
